createdAt,value
2023-01-20T00:02:19.792Z,24.16
2023-01-20T00:04:50.620Z,24.18
2023-01-20T00:07:20.545Z,24.19
2023-01-20T00:09:50.577Z,24.22
2023-01-20T00:12:20.438Z,24.24
2023-01-20T00:14:50.757Z,24.26
2023-01-20T00:17:20.566Z,24.29
2023-01-20T00:19:49.780Z,24.32
2023-01-20T00:22:19.600Z,24.36
2023-01-20T00:24:49.761Z,24.37
2023-01-20T00:27:20.567Z,24.32
2023-01-20T00:29:50.530Z,24.32
2023-01-20T00:32:20.703Z,24.29
2023-01-20T00:34:50.665Z,24.29
2023-01-20T00:37:20.796Z,24.28
2023-01-20T00:39:50.037Z,24.26
2023-01-20T00:42:19.789Z,24.25
2023-01-20T00:44:50.139Z,24.24
2023-01-20T00:47:21.133Z,24.23
2023-01-20T00:49:51.053Z,24.21
2023-01-20T00:52:20.676Z,24.20
2023-01-20T00:54:50.836Z,24.19
2023-01-20T00:57:20.092Z,24.19
2023-01-20T00:59:49.847Z,24.17
2023-01-20T01:02:20.142Z,24.15
2023-01-20T01:04:52.615Z,24.15
2023-01-20T01:07:21.869Z,24.13
2023-01-20T01:09:51.450Z,24.13
2023-01-20T01:12:23.615Z,24.11
2023-01-20T01:14:52.989Z,24.09
2023-01-20T01:17:23.529Z,24.07
2023-01-20T01:19:55.839Z,24.06
2023-01-20T01:22:24.908Z,24.06
2023-01-20T01:24:54.168Z,24.02
2023-01-20T01:27:23.429Z,24.03
2023-01-20T01:29:55.568Z,24.01
2023-01-20T01:32:25.002Z,24.02
2023-01-20T01:34:54.331Z,24.05
2023-01-20T01:37:23.544Z,24.07
2023-01-20T01:39:52.695Z,24.09
2023-01-20T01:42:22.155Z,24.11
2023-01-20T01:45:05.375Z,24.14
2023-01-20T01:47:34.658Z,24.16
2023-01-20T01:50:03.921Z,24.18
2023-01-20T01:52:33.443Z,24.21
2023-01-20T01:55:02.706Z,24.22
2023-01-20T01:57:34.939Z,24.24
2023-01-20T02:00:04.516Z,24.27
2023-01-20T02:02:33.753Z,24.29
2023-01-20T02:05:02.971Z,24.32
2023-01-20T02:07:32.189Z,24.35
2023-01-20T02:10:01.425Z,24.38
2023-01-20T02:12:30.679Z,24.40
2023-01-20T02:15:00.423Z,24.42
2023-01-20T02:17:37.062Z,24.46
2023-01-20T02:20:25.666Z,24.48
2023-01-20T02:22:59.541Z,24.51
2023-01-20T02:25:33.349Z,24.54
2023-01-20T02:28:19.204Z,24.57
2023-01-20T02:31:07.194Z,24.56
2023-01-20T02:33:46.640Z,24.53
2023-01-20T02:36:17.276Z,24.50
2023-01-20T02:39:01.884Z,24.49
2023-01-20T02:41:50.743Z,24.45
2023-01-20T02:44:24.172Z,24.45
2023-01-20T02:47:07.039Z,24.41
2023-01-20T02:49:37.744Z,24.42
2023-01-20T02:52:16.165Z,24.40
2023-01-20T02:54:45.979Z,24.39
2023-01-20T02:57:16.194Z,24.37
2023-01-20T02:59:46.916Z,24.36
2023-01-20T03:02:17.358Z,24.34
2023-01-20T03:04:48.762Z,24.33
2023-01-20T03:07:18.333Z,24.29
2023-01-20T03:09:49.279Z,24.29
2023-01-20T03:12:21.995Z,24.28
2023-01-20T03:14:52.816Z,24.26
2023-01-20T03:17:22.007Z,24.24
2023-01-20T03:19:54.787Z,24.23
2023-01-20T03:22:24.064Z,24.21
2023-01-20T03:24:53.360Z,24.20
2023-01-20T03:27:22.569Z,24.24
2023-01-20T03:29:51.807Z,24.25
2023-01-20T03:32:22.913Z,24.27
2023-01-20T03:34:52.067Z,24.28
2023-01-20T03:37:22.369Z,24.30
2023-01-20T03:39:51.546Z,24.32
2023-01-20T03:42:25.731Z,24.36
2023-01-20T03:44:59.378Z,24.38
2023-01-20T03:47:33.067Z,24.39
2023-01-20T03:50:06.488Z,24.42
2023-01-20T03:52:47.440Z,24.45
2023-01-20T03:55:08.872Z,24.47
2023-01-20T03:57:39.421Z,24.49
2023-01-20T04:00:09.133Z,24.51
2023-01-20T04:02:38.372Z,24.54
2023-01-20T04:05:07.759Z,24.55
2023-01-20T04:07:37.083Z,24.53
2023-01-20T04:10:08.279Z,24.52
2023-01-20T04:12:37.937Z,24.49
2023-01-20T04:15:07.517Z,24.45
2023-01-20T04:17:45.344Z,24.45
2023-01-20T04:20:19.330Z,24.42
2023-01-20T04:23:04.222Z,24.40
2023-01-20T04:25:49.626Z,24.36
2023-01-20T04:28:19.422Z,24.36
2023-01-20T04:30:52.155Z,24.32
2023-01-20T04:33:23.556Z,24.33
2023-01-20T04:36:06.379Z,24.32
2023-01-20T04:38:37.940Z,24.29
2023-01-20T04:41:09.902Z,24.27
2023-01-20T04:43:42.208Z,24.26
2023-01-20T04:46:12.734Z,24.25
2023-01-20T04:48:42.068Z,24.24
2023-01-20T04:51:11.407Z,24.22
2023-01-20T04:53:40.753Z,24.20
2023-01-20T04:56:11.811Z,24.19
2023-01-20T04:58:41.071Z,24.17
2023-01-20T05:01:10.424Z,24.16
2023-01-20T05:03:39.617Z,24.14
2023-01-20T05:06:08.923Z,24.11
2023-01-20T05:08:38.181Z,24.09
2023-01-20T05:11:07.459Z,24.06
2023-01-20T05:13:40.519Z,24.05
2023-01-20T05:16:09.196Z,24.03
2023-01-20T05:18:38.737Z,24.02
2023-01-20T05:21:09.830Z,24.00
2023-01-20T05:23:39.065Z,23.98
2023-01-20T05:26:08.375Z,23.96
2023-01-20T05:28:37.886Z,23.94
2023-01-20T05:31:07.223Z,23.91
2023-01-20T05:33:36.536Z,23.89
2023-01-20T05:36:09.246Z,23.88
2023-01-20T05:38:38.435Z,23.84
2023-01-20T05:41:07.936Z,23.83
2023-01-20T05:43:37.549Z,23.81
2023-01-20T05:46:07.887Z,23.80
2023-01-20T05:48:37.849Z,23.76
2023-01-20T05:51:08.032Z,23.75
2023-01-20T05:53:39.069Z,23.72
2023-01-20T05:56:08.533Z,23.70
2023-01-20T05:58:37.780Z,23.67
2023-01-20T06:01:10.271Z,23.64
2023-01-20T06:03:39.659Z,23.62
2023-01-20T06:06:12.352Z,23.59
2023-01-20T06:08:41.629Z,23.58
2023-01-20T06:11:10.813Z,23.55
2023-01-20T06:13:40.618Z,23.53
2023-01-20T06:16:10.087Z,23.52
2023-01-20T06:18:39.347Z,23.48
2023-01-20T06:21:08.760Z,23.48
2023-01-20T06:23:37.931Z,23.45
2023-01-20T06:26:10.773Z,23.41
2023-01-20T06:28:40.281Z,23.41
2023-01-20T06:31:14.185Z,23.37
2023-01-20T06:33:43.487Z,23.36
2023-01-20T06:36:14.528Z,23.33
2023-01-20T06:38:45.331Z,23.31
2023-01-20T06:41:14.643Z,23.29
2023-01-20T06:43:43.968Z,23.26
2023-01-20T06:46:13.681Z,23.24
2023-01-20T06:48:43.286Z,23.22
2023-01-20T06:51:13.516Z,23.20
2023-01-20T06:53:42.850Z,23.16
2023-01-20T06:56:12.647Z,23.15
2023-01-20T06:58:42.060Z,23.13
2023-01-20T07:01:12.776Z,23.09
2023-01-20T07:03:44.010Z,23.07
2023-01-20T07:06:17.014Z,23.06
2023-01-20T07:08:46.502Z,23.02
2023-01-20T07:11:16.027Z,22.99
2023-01-20T07:13:45.795Z,22.97
2023-01-20T07:16:15.955Z,22.94
2023-01-20T07:18:45.912Z,22.93
2023-01-20T07:21:15.126Z,22.90
2023-01-20T07:23:44.403Z,22.88
2023-01-20T07:26:17.246Z,22.87
2023-01-20T07:28:46.577Z,22.85
2023-01-20T07:31:17.281Z,22.82
2023-01-20T07:33:48.119Z,22.79
2023-01-20T07:36:17.439Z,22.76
2023-01-20T07:38:48.101Z,22.74
2023-01-20T07:41:17.673Z,22.73
2023-01-20T07:43:48.287Z,22.70
2023-01-20T07:46:17.497Z,22.69
2023-01-20T07:48:46.775Z,22.66
2023-01-20T07:51:16.141Z,22.63
2023-01-20T07:53:48.990Z,22.62
2023-01-20T07:56:25.116Z,22.61
2023-01-20T07:58:57.112Z,22.57
2023-01-20T08:01:27.336Z,22.56
2023-01-20T08:03:56.736Z,22.55
2023-01-20T08:06:26.548Z,22.52
2023-01-20T08:08:58.445Z,22.49
2023-01-20T08:11:26.515Z,22.48
2023-01-20T08:13:55.720Z,22.47
2023-01-20T08:16:25.043Z,22.44
2023-01-20T08:18:55.758Z,22.42
2023-01-20T08:21:25.539Z,22.40
2023-01-20T08:23:55.085Z,22.39
2023-01-20T08:26:25.912Z,22.35
2023-01-20T08:28:55.263Z,22.34
2023-01-20T08:31:25.180Z,22.32
2023-01-20T08:33:55.137Z,22.31
2023-01-20T08:36:28.457Z,22.31
2023-01-20T08:38:58.468Z,22.33
2023-01-20T08:41:28.490Z,22.34
2023-01-20T08:43:57.960Z,22.37
2023-01-20T08:46:27.292Z,22.38
2023-01-20T08:48:57.209Z,22.41
2023-01-20T08:51:27.764Z,22.43
2023-01-20T08:53:57.066Z,22.44
2023-01-20T08:56:26.306Z,22.46
2023-01-20T08:58:55.464Z,22.49
2023-01-20T09:01:25.561Z,22.51
2023-01-20T09:04:06.429Z,22.54
2023-01-20T09:06:28.537Z,22.57
2023-01-20T09:08:57.907Z,22.59
2023-01-20T09:11:27.197Z,22.62
2023-01-20T09:13:57.086Z,22.64
2023-01-20T09:16:26.795Z,22.67
2023-01-20T09:18:59.667Z,22.70
2023-01-20T09:21:29.205Z,22.69
2023-01-20T09:23:58.636Z,22.68
2023-01-20T09:26:35.828Z,22.65
2023-01-20T09:28:58.331Z,22.65
2023-01-20T09:31:27.667Z,22.65
2023-01-20T09:33:58.400Z,22.63
2023-01-20T09:36:29.016Z,22.62
2023-01-20T09:39:15.863Z,22.61
2023-01-20T09:42:02.460Z,22.60
2023-01-20T09:44:33.093Z,22.59
2023-01-20T09:47:21.608Z,22.57
2023-01-20T09:50:26.873Z,22.57
2023-01-20T09:53:04.759Z,22.54
2023-01-20T09:55:38.157Z,22.55
2023-01-20T09:58:17.595Z,22.52
2023-01-20T10:00:48.221Z,22.52
2023-01-20T10:03:18.953Z,22.49
2023-01-20T10:05:49.146Z,22.48
2023-01-20T10:08:26.223Z,22.48
2023-01-20T10:10:56.879Z,22.46
2023-01-20T10:13:36.941Z,22.43
2023-01-20T10:16:07.470Z,22.42
2023-01-20T10:18:41.394Z,22.41
2023-01-20T10:21:12.244Z,22.39
2023-01-20T10:23:46.160Z,22.37
2023-01-20T10:26:19.824Z,22.34
2023-01-20T10:28:57.363Z,22.34
2023-01-20T10:31:28.786Z,22.30
2023-01-20T10:33:58.203Z,22.30
2023-01-20T10:36:28.811Z,22.28
2023-01-20T10:38:59.592Z,22.27
2023-01-20T10:41:41.699Z,22.25
2023-01-20T10:44:14.339Z,22.23
2023-01-20T10:46:59.063Z,22.21
2023-01-20T10:49:47.167Z,22.20
2023-01-20T10:52:32.795Z,22.19
2023-01-20T10:55:19.811Z,22.16
2023-01-20T10:58:06.696Z,22.15
2023-01-20T11:00:36.603Z,22.14
2023-01-20T11:03:07.124Z,22.12
2023-01-20T11:05:42.003Z,22.10
2023-01-20T11:08:12.842Z,22.09
2023-01-20T11:10:42.747Z,22.08
2023-01-20T11:13:12.296Z,22.07
2023-01-20T11:15:42.988Z,22.04
2023-01-20T11:18:19.908Z,22.03
2023-01-20T11:21:03.002Z,22.01
2023-01-20T11:23:41.928Z,22.00
2023-01-20T11:26:12.689Z,21.99
2023-01-20T11:28:49.438Z,21.95
2023-01-20T11:31:19.333Z,21.94
2023-01-20T11:33:59.483Z,21.88
2023-01-20T11:36:28.774Z,21.91
2023-01-20T11:38:58.360Z,21.89
2023-01-20T11:41:31.135Z,21.87
2023-01-20T11:44:00.696Z,21.86
2023-01-20T11:46:30.983Z,21.88
2023-01-20T11:49:16.585Z,21.89
2023-01-20T11:51:49.877Z,21.90
2023-01-20T11:54:23.295Z,21.94
2023-01-20T11:56:54.167Z,21.98
2023-01-20T11:59:25.136Z,22.03
2023-01-20T12:01:55.875Z,22.09
2023-01-20T12:04:25.536Z,22.16
2023-01-20T12:06:58.221Z,22.23
2023-01-20T12:09:29.355Z,22.28
2023-01-20T12:12:01.936Z,22.34
2023-01-20T12:14:35.317Z,22.41
2023-01-20T12:17:15.492Z,22.48
2023-01-20T12:19:46.265Z,22.55
2023-01-20T12:22:16.855Z,22.63
2023-01-20T12:25:09.290Z,22.70
2023-01-20T12:27:39.972Z,22.76
2023-01-20T12:30:10.008Z,22.86
2023-01-20T12:32:40.630Z,22.91
2023-01-20T12:35:11.272Z,22.99
2023-01-20T12:37:42.161Z,23.08
2023-01-20T12:40:19.030Z,23.12
2023-01-20T12:43:01.750Z,23.16
2023-01-20T12:45:48.873Z,23.20
2023-01-20T12:48:19.489Z,23.25
2023-01-20T12:50:53.551Z,23.30
2023-01-20T12:53:37.700Z,23.36
2023-01-20T12:56:14.344Z,23.43
2023-01-20T12:58:47.984Z,23.51
2023-01-20T13:01:35.080Z,23.55
2023-01-20T13:04:05.978Z,23.60
2023-01-20T13:06:48.736Z,23.65
2023-01-20T13:09:25.508Z,23.68
2023-01-20T13:11:56.521Z,23.72
2023-01-20T13:14:27.209Z,23.76
2023-01-20T13:17:04.025Z,23.81
2023-01-20T13:19:34.606Z,23.83
2023-01-20T13:22:13.478Z,23.89
2023-01-20T13:24:43.786Z,23.94
2023-01-20T13:27:14.385Z,23.97
2023-01-20T13:29:50.926Z,24.01
2023-01-20T13:32:30.693Z,24.05
2023-01-20T13:34:59.877Z,24.06
2023-01-20T13:37:30.210Z,24.10
2023-01-20T13:40:00.951Z,24.16
2023-01-20T13:42:40.814Z,24.20
2023-01-20T13:45:18.139Z,24.24
2023-01-20T13:47:52.197Z,24.27
2023-01-20T13:50:26.400Z,24.30
2023-01-20T13:52:57.135Z,24.32
2023-01-20T13:55:30.219Z,24.38
2023-01-20T13:58:02.136Z,24.41
2023-01-20T14:00:31.263Z,24.47
2023-01-20T14:03:00.467Z,24.49
2023-01-20T14:05:30.860Z,24.52
2023-01-20T14:08:00.151Z,24.55
2023-01-20T14:10:30.070Z,24.57
2023-01-20T14:12:59.406Z,24.59
2023-01-20T14:15:29.714Z,24.62
2023-01-20T14:17:58.855Z,24.64
2023-01-20T14:20:28.167Z,24.66
2023-01-20T14:22:57.386Z,24.69
2023-01-20T14:25:27.342Z,24.71
2023-01-20T14:27:57.380Z,24.73
2023-01-20T14:30:27.060Z,24.75
2023-01-20T14:32:56.225Z,24.77
2023-01-20T14:35:28.383Z,24.80
2023-01-20T14:37:57.705Z,24.83
2023-01-20T14:40:30.624Z,24.84
2023-01-20T14:43:09.435Z,24.86
2023-01-20T14:45:38.730Z,24.89
2023-01-20T14:48:08.215Z,24.91
2023-01-20T14:50:37.559Z,24.93
2023-01-20T14:53:06.988Z,24.95
2023-01-20T14:55:41.026Z,24.97
2023-01-20T14:58:10.710Z,24.99
2023-01-20T15:00:40.035Z,25.02
2023-01-20T15:03:11.704Z,25.05
2023-01-20T15:05:42.050Z,25.06
2023-01-20T15:08:16.152Z,25.09
2023-01-20T15:10:45.360Z,25.12
2023-01-20T15:13:25.117Z,25.14
2023-01-20T15:15:54.484Z,25.17
2023-01-20T15:18:24.170Z,25.19
2023-01-20T15:21:03.817Z,25.22
2023-01-20T15:23:36.542Z,25.23
2023-01-20T15:26:12.865Z,25.26
2023-01-20T15:28:45.247Z,25.25
2023-01-20T15:31:15.310Z,25.20
2023-01-20T15:33:44.774Z,25.16
2023-01-20T15:36:24.767Z,25.14
2023-01-20T15:38:53.988Z,25.11
2023-01-20T15:41:23.483Z,25.09
2023-01-20T15:43:54.279Z,25.07
2023-01-20T15:46:23.973Z,25.06
2023-01-20T15:48:53.766Z,25.02
2023-01-20T15:51:22.958Z,24.99
2023-01-20T15:53:52.506Z,24.98
2023-01-20T15:56:23.877Z,24.94
2023-01-20T15:58:53.597Z,24.93
2023-01-20T16:01:25.022Z,24.90
2023-01-20T16:03:55.964Z,24.89
2023-01-20T16:06:26.506Z,24.88
2023-01-20T16:08:55.710Z,24.87
2023-01-20T16:11:25.006Z,24.85
2023-01-20T16:13:54.645Z,24.83
2023-01-20T16:16:24.485Z,24.81
2023-01-20T16:18:53.908Z,24.80
2023-01-20T16:21:23.498Z,24.77
2023-01-20T16:23:53.628Z,24.72
2023-01-20T16:26:24.072Z,24.72
2023-01-20T16:32:31.010Z,24.67
2023-01-20T16:35:00.412Z,24.66
2023-01-20T16:37:29.663Z,24.63
2023-01-20T16:39:58.934Z,24.63
2023-01-20T16:42:28.202Z,24.61
2023-01-20T16:44:57.407Z,24.60
2023-01-20T16:47:32.531Z,24.57
2023-01-20T16:50:01.871Z,24.55
2023-01-20T16:52:31.003Z,24.53
2023-01-20T16:55:00.307Z,24.53
2023-01-20T16:57:29.634Z,24.54
2023-01-20T16:59:58.824Z,24.53
2023-01-20T17:02:28.426Z,24.52
2023-01-20T17:04:57.617Z,24.50
2023-01-20T17:07:28.312Z,24.48
2023-01-20T17:09:58.524Z,24.47
2023-01-20T17:12:27.772Z,24.45
2023-01-20T17:14:57.240Z,24.45
2023-01-20T17:17:27.315Z,24.44
2023-01-20T17:19:56.766Z,24.41
2023-01-20T17:22:25.967Z,24.39
2023-01-20T17:24:55.268Z,24.38
2023-01-20T17:27:24.485Z,24.37
2023-01-20T17:29:53.678Z,24.38
2023-01-20T17:32:22.837Z,24.40
2023-01-20T17:34:52.156Z,24.41
2023-01-20T17:37:21.956Z,24.44
2023-01-20T17:39:52.054Z,24.47
2023-01-20T17:42:21.937Z,24.48
2023-01-20T17:44:51.965Z,24.51
2023-01-20T17:47:22.039Z,24.51
2023-01-20T17:49:52.239Z,24.57
2023-01-20T17:52:23.608Z,24.59
2023-01-20T17:54:53.867Z,24.62
2023-01-20T17:57:25.074Z,24.64
2023-01-20T17:59:54.599Z,24.68
2023-01-20T18:02:23.967Z,24.70
2023-01-20T18:04:53.826Z,24.73
2023-01-20T18:07:23.853Z,24.73
2023-01-20T18:09:53.961Z,24.69
2023-01-20T18:12:23.885Z,24.67
2023-01-20T18:14:55.104Z,24.66
2023-01-20T18:17:24.276Z,24.64
2023-01-20T18:19:53.764Z,24.63
2023-01-20T18:22:23.736Z,24.62
2023-01-20T18:24:53.939Z,24.62
2023-01-20T18:27:23.611Z,24.59
2023-01-20T18:29:53.019Z,24.59
2023-01-20T18:32:23.105Z,24.57
2023-01-20T18:34:52.976Z,24.58
2023-01-20T18:37:22.997Z,24.55
2023-01-20T18:39:53.174Z,24.56
2023-01-20T18:42:22.901Z,24.55
2023-01-20T18:44:53.331Z,24.52
2023-01-20T18:47:22.943Z,24.53
2023-01-20T18:49:53.105Z,24.50
2023-01-20T18:52:23.027Z,24.50
2023-01-20T18:54:52.961Z,24.49
2023-01-20T18:57:23.030Z,24.48
2023-01-20T18:59:53.084Z,24.48
2023-01-20T19:02:22.989Z,24.47
2023-01-20T19:04:53.120Z,24.45
2023-01-20T19:07:23.068Z,24.45
2023-01-20T19:09:53.248Z,24.42
2023-01-20T19:12:23.162Z,24.43
2023-01-20T19:14:53.442Z,24.41
2023-01-20T19:17:23.103Z,24.40
2023-01-20T19:19:53.189Z,24.39
2023-01-20T19:22:23.084Z,24.39
2023-01-20T19:24:53.170Z,24.38
2023-01-20T19:27:23.445Z,24.37
2023-01-20T19:29:53.216Z,24.35
2023-01-20T19:32:23.065Z,24.36
2023-01-20T19:34:53.242Z,24.34
2023-01-20T19:37:23.172Z,24.33
2023-01-20T19:39:53.138Z,24.35
2023-01-20T19:42:24.220Z,24.32
2023-01-20T19:44:54.062Z,24.32
2023-01-20T19:47:24.096Z,24.30
2023-01-20T19:52:30.376Z,24.29
2023-01-20T19:54:59.650Z,24.30
2023-01-20T19:57:28.985Z,24.30
2023-01-20T19:59:58.223Z,24.29
2023-01-20T20:02:28.338Z,24.29
2023-01-20T20:04:57.616Z,24.29
2023-01-20T20:07:26.902Z,24.28
2023-01-20T20:09:56.196Z,24.28
2023-01-20T20:12:25.295Z,24.27
2023-01-20T20:14:54.452Z,24.27
2023-01-20T20:17:24.231Z,24.27
2023-01-20T20:19:53.938Z,24.25
2023-01-20T20:22:24.302Z,24.26
2023-01-20T20:24:54.179Z,24.25
2023-01-20T20:27:24.160Z,24.24
2023-01-20T20:29:54.689Z,24.24
2023-01-20T20:32:26.640Z,24.25
2023-01-20T20:34:54.906Z,24.24
2023-01-20T20:37:24.080Z,24.24
2023-01-20T20:39:54.199Z,24.23
2023-01-20T20:42:24.237Z,24.22
2023-01-20T20:44:53.478Z,24.21
2023-01-20T20:47:25.206Z,24.21
2023-01-20T20:49:54.308Z,24.21
2023-01-20T20:52:24.142Z,24.21
2023-01-20T20:54:55.694Z,24.21
2023-01-20T20:57:25.002Z,24.20
2023-01-20T20:59:59.136Z,24.21
2023-01-20T21:02:24.963Z,24.19
2023-01-20T21:04:54.243Z,24.19
2023-01-20T21:07:26.882Z,24.20
2023-01-20T21:09:56.227Z,24.18
2023-01-20T21:12:25.514Z,24.19
2023-01-20T21:14:54.703Z,24.20
2023-01-20T21:17:24.048Z,24.19
2023-01-20T21:19:55.943Z,24.18
2023-01-20T21:22:25.104Z,24.18
2023-01-20T21:24:54.518Z,24.18
2023-01-20T21:27:24.298Z,24.17
2023-01-20T21:29:54.250Z,24.17
2023-01-20T21:32:24.346Z,24.17
2023-01-20T21:34:53.801Z,24.17
2023-01-20T21:37:23.483Z,24.17
2023-01-20T21:39:53.736Z,24.16
2023-01-20T21:42:23.368Z,24.18
2023-01-20T21:44:53.470Z,24.15
2023-01-20T21:47:23.971Z,24.18
2023-01-20T21:50:10.828Z,24.16
2023-01-20T21:52:43.177Z,24.16
2023-01-20T21:55:17.672Z,24.19
2023-01-20T21:57:48.406Z,24.19
2023-01-20T22:00:18.448Z,24.19
2023-01-20T22:02:47.861Z,24.20
2023-01-20T22:05:17.147Z,24.21
2023-01-20T22:07:47.828Z,24.21
2023-01-20T22:10:17.325Z,24.21
2023-01-20T22:12:46.832Z,24.21
2023-01-20T22:15:16.167Z,24.23
2023-01-20T22:17:46.340Z,24.23
2023-01-20T22:20:16.025Z,24.23
2023-01-20T22:22:45.422Z,24.25
2023-01-20T22:25:14.680Z,24.24
2023-01-20T22:27:43.927Z,24.25
2023-01-20T22:30:13.539Z,24.26
2023-01-20T22:32:42.806Z,24.27
2023-01-20T22:35:12.354Z,24.26
2023-01-20T22:37:41.607Z,24.28
2023-01-20T22:40:11.327Z,24.28
2023-01-20T22:42:40.685Z,24.28
2023-01-20T22:45:10.560Z,24.29
2023-01-20T22:47:39.809Z,24.29
2023-01-20T22:50:09.382Z,24.31
2023-01-20T22:52:38.633Z,24.31
2023-01-20T22:55:08.126Z,24.31
2023-01-20T22:57:37.377Z,24.31
2023-01-20T23:00:08.323Z,24.32
2023-01-20T23:02:38.861Z,24.32
2023-01-20T23:05:08.169Z,24.32
2023-01-20T23:07:38.869Z,24.33
2023-01-20T23:10:08.585Z,24.34
2023-01-20T23:12:37.820Z,24.34
2023-01-20T23:15:07.376Z,24.35
2023-01-20T23:17:36.618Z,24.34
2023-01-20T23:20:05.845Z,24.37
2023-01-20T23:22:35.137Z,24.35
2023-01-20T23:25:06.738Z,24.36
2023-01-20T23:27:35.909Z,24.35
2023-01-20T23:30:05.556Z,24.34
2023-01-20T23:32:34.819Z,24.34
2023-01-20T23:35:04.067Z,24.34
2023-01-20T23:37:33.416Z,24.34
2023-01-20T23:40:02.613Z,24.32
2023-01-20T23:42:31.822Z,24.32
2023-01-20T23:45:01.393Z,24.32
2023-01-20T23:47:30.581Z,24.32
2023-01-20T23:49:59.743Z,24.30
2023-01-20T23:52:29.013Z,24.31
2023-01-20T23:54:58.732Z,24.29
2023-01-20T23:57:28.519Z,24.29
2023-01-20T23:59:57.749Z,24.25
